Time;durP1;ratioP1;P1;durP2;ratioP2;P2;SDS_P1;SDS_P2;PMS_P1;PMS_P2;Temp;Humidity;BMP_temperature;BMP_pressure;BME280_temperature;BME280_humidity;BME280_pressure;Samples;Min_cycle;Max_cycle;Signal;HPM_P1;HPM_P2
2022/04/14 00:18:20;;;;;;;18.75;8.15;;;;;;;7.39;100.00;94701.63;5057657;28;20139;-94
2022/04/14 00:20:46;;;;;;;15.13;7.57;;;;;;;7.31;100.00;94701.03;5024435;28;20060;-94
2022/04/14 00:23:11;;;;;;;14.07;7.65;;;;;;;7.27;100.00;94707.75;5024373;28;20193;-94
2022/04/14 00:25:37;;;;;;;14.48;7.90;;;;;;;7.17;100.00;94704.97;5024429;28;20036;-94
2022/04/14 00:28:03;;;;;;;15.77;8.00;;;;;;;7.19;100.00;94708.94;5024401;28;20032;-94
2022/04/14 00:30:28;;;;;;;14.55;8.65;;;;;;;7.30;100.00;94703.84;5024200;28;20029;-94
2022/04/14 00:32:54;;;;;;;14.85;7.78;;;;;;;7.34;100.00;94702.38;5024021;28;20456;-93
2022/04/14 00:35:19;;;;;;;15.88;7.45;;;;;;;7.48;100.00;94708.03;5024166;28;20036;-92
2022/04/14 00:37:45;;;;;;;12.68;7.00;;;;;;;7.52;100.00;94700.53;5040424;28;20113;-93
2022/04/14 00:40:10;;;;;;;11.90;6.63;;;;;;;7.38;100.00;94707.88;5023893;28;20029;-95
2022/04/14 00:42:36;;;;;;;15.13;7.22;;;;;;;7.30;100.00;94699.44;5023563;28;20127;-93
2022/04/14 00:45:02;;;;;;;19.00;8.07;;;;;;;7.26;100.00;94692.34;5023317;28;20024;-93
2022/04/14 00:47:31;;;;;;;15.05;7.65;;;;;;;7.25;100.00;94701.19;5023942;28;20497;-93
2022/04/14 00:49:57;;;;;;;12.70;7.03;;;;;;;7.29;100.00;94695.25;5024438;28;20025;-94
2022/04/14 00:52:24;;;;;;;25.92;7.35;;;;;;;7.25;100.00;94701.97;5023823;28;20025;-94
2022/04/14 00:58:12;;;;;;;13.57;7.20;;;;;;;7.20;100.00;94696.69;5057602;28;20032;-94
2022/04/14 01:00:38;;;;;;;14.13;7.18;;;;;;;7.03;100.00;94700.06;5040232;28;20025;-95
2022/04/14 01:03:04;;;;;;;12.27;6.78;;;;;;;6.96;100.00;94696.84;5023828;28;20115;-95
2022/04/14 01:05:29;;;;;;;15.48;7.25;;;;;;;6.97;100.00;94702.84;5023522;28;20056;-95
2022/04/14 01:07:57;;;;;;;21.45;7.00;;;;;;;6.85;100.00;94702.91;5023569;28;20032;-93
2022/04/14 01:10:22;;;;;;;16.23;7.50;;;;;;;6.91;100.00;94707.97;5023991;28;20083;-93
2022/04/14 01:12:48;;;;;;;12.55;7.45;;;;;;;6.98;100.00;94709.63;5023752;28;20021;-95
2022/04/14 01:15:15;;;;;;;12.55;7.05;;;;;;;6.93;100.00;94699.91;5023744;28;20026;-95
2022/04/14 01:17:41;;;;;;;16.02;8.27;;;;;;;7.07;100.00;94703.00;5023163;28;20031;-94
2022/04/14 01:20:10;;;;;;;14.75;7.65;;;;;;;7.04;100.00;94700.88;5023280;28;20025;-95
2022/04/14 01:22:35;;;;;;;16.00;7.70;;;;;;;7.01;100.00;94701.31;5023733;28;20025;-94
2022/04/14 01:25:01;;;;;;;15.65;8.02;;;;;;;7.12;100.00;94703.06;5023364;28;20079;-96
2022/04/14 01:27:28;;;;;;;18.70;8.60;;;;;;;7.18;100.00;94706.56;5023796;28;20132;-95
2022/04/14 01:29:54;;;;;;;16.55;8.23;;;;;;;7.25;100.00;94712.41;5040040;28;20036;-95
2022/04/14 01:32:20;;;;;;;19.02;8.00;;;;;;;7.08;100.00;94713.16;5023430;28;20430;-94
2022/04/14 01:34:46;;;;;;;13.48;8.05;;;;;;;6.91;100.00;94715.78;5023395;28;20472;-95
2022/04/14 01:37:11;;;;;;;20.30;7.72;;;;;;;6.97;100.00;94711.44;5039845;28;20052;-95
2022/04/14 01:39:37;;;;;;;14.70;6.45;;;;;;;6.82;100.00;94719.00;5039615;28;20051;-94
2022/04/14 01:42:03;;;;;;;13.90;7.20;;;;;;;6.82;100.00;94719.00;5023419;28;20075;-95
2022/04/14 01:47:50;;;;;;;17.15;7.85;;;;;;;6.59;100.00;94711.03;5057092;28;20047;-95
2022/04/14 01:50:16;;;;;;;12.57;6.88;;;;;;;6.51;100.00;94709.59;5023262;28;20422;-94
2022/04/14 01:52:44;;;;;;;14.38;7.13;;;;;;;6.48;100.00;94704.88;5023215;28;20345;-95
2022/04/14 01:55:09;;;;;;;10.30;6.05;;;;;;;6.44;100.00;94706.38;5024607;28;20059;-94
2022/04/14 01:57:35;;;;;;;15.23;5.97;;;;;;;6.54;100.00;94708.34;5043578;28;20024;-95
2022/04/14 02:00:02;;;;;;;11.98;5.78;;;;;;;6.44;100.00;94708.16;5026993;28;20389;-93
2022/04/14 02:02:27;;;;;;;13.30;5.75;;;;;;;6.36;100.00;94707.53;5027389;28;20028;-96
2022/04/14 02:04:53;;;;;;;10.75;5.88;;;;;;;6.36;100.00;94712.72;5026960;28;20025;-96
2022/04/14 02:07:19;;;;;;;14.40;6.35;;;;;;;6.53;100.00;94712.00;5026785;28;20047;-96
2022/04/14 02:09:44;;;;;;;13.15;6.72;;;;;;;6.62;100.00;94720.22;5026883;28;20044;-94
2022/04/14 02:12:11;;;;;;;16.63;5.95;;;;;;;6.65;100.00;94711.94;5026741;28;20025;-95
2022/04/14 02:14:37;;;;;;;14.25;6.15;;;;;;;6.70;100.00;94711.22;5026738;28;20058;-94
2022/04/14 02:17:03;;;;;;;10.15;5.55;;;;;;;6.69;100.00;94707.03;5043072;28;20029;-95
2022/04/14 02:19:28;;;;;;;14.65;6.30;;;;;;;6.60;100.00;94717.06;5043334;28;20025;-96
2022/04/14 02:21:58;;;;;;;12.52;5.70;;;;;;;6.49;100.00;94716.09;5026691;28;20040;-94
2022/04/14 02:27:45;;;;;;;15.50;5.93;;;;;;;6.32;100.00;94719.44;5060663;28;20469;-96
2022/04/14 02:30:11;;;;;;;16.88;6.75;;;;;;;6.46;100.00;94719.94;5042900;28;20029;-93
2022/04/14 02:32:36;;;;;;;10.23;6.00;;;;;;;6.39;100.00;94721.91;5026363;28;20079;-95
2022/04/14 02:35:04;;;;;;;11.73;4.95;;;;;;;6.44;100.00;94713.38;5026310;28;20032;-94
2022/04/14 02:37:29;;;;;;;9.65;5.07;;;;;;;6.46;100.00;94714.72;5042750;28;20028;-95
2022/04/14 02:39:55;;;;;;;9.95;5.00;;;;;;;6.32;100.00;94713.41;5026183;28;20032;-95
2022/04/14 02:42:20;;;;;;;9.45;5.10;;;;;;;6.26;100.00;94715.13;5026145;28;20033;-94
2022/04/14 02:44:46;;;;;;;8.80;4.80;;;;;;;6.23;100.00;94710.41;5026175;28;20036;-96
2022/04/14 02:47:11;;;;;;;8.98;5.72;;;;;;;6.27;100.00;94708.13;5025911;28;20033;-94
2022/04/14 02:49:37;;;;;;;11.23;5.35;;;;;;;6.25;100.00;94710.94;5026425;28;20036;-94
2022/04/14 02:52:02;;;;;;;14.00;5.35;;;;;;;6.57;100.00;94718.31;5025711;28;20063;-95
2022/04/14 02:54:28;;;;;;;13.43;5.00;;;;;;;6.40;100.00;94713.06;5042598;28;20123;-95
2022/04/14 02:56:53;;;;;;;12.30;5.75;;;;;;;6.48;100.00;94715.28;5026080;28;20043;-94
2022/04/14 02:59:19;;;;;;;12.02;5.25;;;;;;;6.54;100.00;94710.19;5042421;28;20055;-96
2022/04/14 03:01:44;;;;;;;9.40;5.05;;;;;;;6.52;100.00;94705.19;5026329;28;20036;-95
2022/04/14 03:04:10;;;;;;;12.38;5.75;;;;;;;6.42;100.00;94703.22;5025794;28;20061;-95
2022/04/14 03:06:35;;;;;;;13.07;5.32;;;;;;;6.30;100.00;94708.44;5041268;28;20033;-95
2022/04/14 03:09:00;;;;;;;9.73;5.93;;;;;;;6.14;100.00;94711.75;5025719;28;20119;-95
2022/04/14 03:11:26;;;;;;;11.48;5.60;;;;;;;6.20;100.00;94703.81;5025444;28;20025;-94
2022/04/14 03:13:54;;;;;;;14.77;6.10;;;;;;;6.20;100.00;94706.44;5042200;28;20040;-96
2022/04/14 03:16:19;;;;;;;11.63;5.60;;;;;;;6.24;100.00;94706.75;5042067;28;20044;-95
2022/04/14 03:18:45;;;;;;;10.77;5.32;;;;;;;6.27;100.00;94702.91;5025428;28;20426;-93
2022/04/14 03:21:11;;;;;;;12.02;5.20;;;;;;;6.34;100.00;94699.16;5041732;28;20033;-96
2022/04/14 03:23:40;;;;;;;8.30;4.70;;;;;;;6.18;100.00;94702.50;5025497;28;20033;-94
2022/04/14 03:26:08;;;;;;;7.70;4.18;;;;;;;6.06;100.00;94705.91;5025171;28;20543;-93
2022/04/14 03:28:34;;;;;;;8.68;4.63;;;;;;;6.22;100.00;94704.38;5025513;28;20037;-95
2022/04/14 03:31:00;;;;;;;11.95;5.53;;;;;;;5.85;100.00;94701.28;5025213;28;20033;-95
2022/04/14 03:33:25;;;;;;;14.90;7.20;;;;;;;5.64;100.00;94708.66;5041504;28;20039;-93
2022/04/14 03:35:51;;;;;;;13.32;7.20;;;;;;;5.51;100.00;94694.06;5025518;28;20028;-94
2022/04/14 03:38:16;;;;;;;11.73;6.50;;;;;;;5.58;100.00;94696.56;5025088;28;20123;-93
2022/04/14 03:40:42;;;;;;;18.40;6.45;;;;;;;5.71;100.00;94700.75;5041238;28;20039;-94
2022/04/14 03:43:07;;;;;;;11.45;5.30;;;;;;;5.66;100.00;94704.03;5024877;28;20059;-94
2022/04/14 03:45:35;;;;;;;13.40;4.63;;;;;;;5.75;100.00;94714.84;5025031;28;20036;-94
2022/04/14 03:48:01;;;;;;;7.22;4.00;;;;;;;5.62;100.00;94701.06;5041432;28;20438;-94
2022/04/14 03:50:26;;;;;;;11.38;5.10;;;;;;;5.62;100.00;94693.28;5024967;28;20043;-95
2022/04/14 03:52:52;;;;;;;10.35;4.80;;;;;;;5.56;100.00;94696.78;5041637;28;20032;-95
2022/04/14 03:55:17;;;;;;;8.10;4.70;;;;;;;5.49;100.00;94694.31;5024862;28;20029;-95
2022/04/14 03:57:43;;;;;;;10.93;5.13;;;;;;;5.50;100.00;94688.09;5024705;28;20039;-95
2022/04/14 04:00:09;;;;;;;9.82;4.30;;;;;;;5.51;100.00;94692.28;5041012;28;20461;-95
2022/04/14 04:02:36;;;;;;;8.23;3.60;;;;;;;5.69;100.00;94700.19;5024772;28;20036;-94
2022/04/14 04:05:02;;;;;;;6.80;2.97;;;;;;;5.62;100.00;94697.69;5024889;28;20029;-94
2022/04/14 04:07:27;;;;;;;6.88;2.70;;;;;;;5.63;100.00;94700.06;5059006;28;20040;-94
2022/04/14 04:09:53;;;;;;;5.45;2.65;;;;;;;5.51;100.00;94702.66;5040756;28;20083;-95
2022/04/14 04:12:21;;;;;;;4.97;2.35;;;;;;;5.56;100.00;94703.78;5040707;28;20032;-95
2022/04/14 04:14:48;;;;;;;6.10;2.67;;;;;;;5.45;100.00;94711.38;5041245;28;20420;-95
2022/04/14 04:17:14;;;;;;;5.03;2.65;;;;;;;5.43;100.00;94712.63;5040620;28;20052;-93
2022/04/14 04:19:39;;;;;;;9.05;2.75;;;;;;;5.39;100.00;94714.88;5041116;28;20119;-94
2022/04/14 04:22:06;;;;;;;5.15;2.78;;;;;;;5.78;100.00;94706.59;5040806;28;20123;-95
2022/04/14 04:24:32;;;;;;;6.85;2.58;;;;;;;5.40;100.00;94705.28;5024684;28;20033;-95
2022/04/14 04:26:57;;;;;;;7.43;2.55;;;;;;;5.30;100.00;94717.00;5024492;28;20029;-95
2022/04/14 04:29:23;;;;;;;6.57;2.40;;;;;;;5.55;100.00;94717.81;5024170;28;20037;-95
2022/04/14 04:31:48;;;;;;;7.30;3.00;;;;;;;5.61;100.00;94720.28;5041014;28;20083;-94
2022/04/14 04:34:14;;;;;;;4.82;3.00;;;;;;;5.63;100.00;94715.66;5024022;28;20166;-95
2022/04/14 04:36:39;;;;;;;6.00;3.00;;;;;;;5.87;100.00;94717.44;5023854;28;20033;-94
2022/04/14 04:39:05;;;;;;;6.75;2.40;;;;;;;5.80;100.00;94718.34;5023998;28;20024;-95
2022/04/14 04:41:31;;;;;;;3.90;2.22;;;;;;;5.81;100.00;94716.56;5023934;28;20033;-94
2022/04/14 04:43:56;;;;;;;10.15;2.70;;;;;;;5.83;100.00;94713.72;5023827;28;20039;-94
2022/04/14 04:46:22;;;;;;;4.55;2.60;;;;;;;5.62;100.00;94719.28;5023908;28;20028;-94
2022/04/14 04:48:47;;;;;;;7.38;2.70;;;;;;;5.57;100.00;94718.38;5023782;28;20124;-95
2022/04/14 04:51:13;;;;;;;5.20;2.70;;;;;;;5.56;100.00;94719.38;5023661;28;20039;-94
2022/04/14 04:53:39;;;;;;;3.63;2.20;;;;;;;5.65;100.00;94718.03;5023701;28;20032;-94
2022/04/14 04:56:04;;;;;;;4.90;2.30;;;;;;;5.73;100.00;94720.28;5023639;28;20039;-94
2022/04/14 04:58:30;;;;;;;6.40;2.40;;;;;;;5.83;100.00;94719.72;5023911;28;20025;-94
2022/04/14 05:00:56;;;;;;;5.43;2.60;;;;;;;5.70;100.00;94717.34;5023984;28;20033;-94
2022/04/14 05:03:21;;;;;;;4.25;2.33;;;;;;;5.84;100.00;94715.28;5023359;28;20056;-90
2022/04/14 05:05:48;;;;;;;6.43;2.55;;;;;;;6.08;100.00;94722.06;5022676;28;20028;-90
2022/04/14 05:08:14;;;;;;;6.22;2.38;;;;;;;6.18;100.00;94721.47;5038832;28;20033;-90
2022/04/14 05:10:39;;;;;;;3.67;2.20;;;;;;;6.12;100.00;94722.41;5022594;28;20042;-90
2022/04/14 05:13:05;;;;;;;6.05;2.30;;;;;;;6.15;100.00;94727.16;5022843;28;20032;-91
2022/04/14 05:15:31;;;;;;;4.90;2.55;;;;;;;6.25;100.00;94731.75;5022469;28;20033;-89
2022/04/14 05:17:56;;;;;;;4.90;2.13;;;;;;;6.24;100.00;94732.78;5022719;28;20044;-90
2022/04/14 05:20:22;;;;;;;3.58;2.03;;;;;;;6.29;100.00;94735.47;5022277;28;20319;-89
2022/04/14 05:22:48;;;;;;;8.07;2.15;;;;;;;6.38;100.00;94729.94;5038946;28;20039;-89
2022/04/14 05:25:14;;;;;;;8.40;1.90;;;;;;;6.56;100.00;94739.38;5039071;28;20055;-91
2022/04/14 05:27:39;;;;;;;3.97;2.10;;;;;;;6.69;100.00;94733.09;5022415;28;20032;-90
2022/04/14 05:30:05;;;;;;;6.80;2.20;;;;;;;6.88;100.00;94742.28;5023790;28;20438;-90
2022/04/14 05:32:31;;;;;;;4.85;2.45;;;;;;;7.01;100.00;94736.00;5026566;28;20029;-91
2022/04/14 05:34:57;;;;;;;4.65;2.40;;;;;;;7.08;100.00;94735.84;5026530;28;20116;-89
2022/04/14 05:37:24;;;;;;;6.60;2.30;;;;;;;7.11;100.00;94730.16;5027316;28;20036;-92
2022/04/14 05:39:52;;;;;;;5.50;2.08;;;;;;;7.27;100.00;94741.63;5026992;28;20024;-91
2022/04/14 05:42:20;;;;;;;3.97;1.90;;;;;;;7.39;100.00;94738.13;5039519;28;20028;-91
2022/04/14 05:44:45;;;;;;;8.27;2.60;;;;;;;7.70;100.00;94733.38;5035765;28;20036;-90
2022/04/14 05:47:10;;;;;;;8.00;1.95;;;;;;;7.76;100.00;94737.63;5032294;28;20055;-93
2022/04/14 05:49:36;;;;;;;4.18;1.73;;;;;;;7.89;100.00;94737.28;5042870;28;20442;-92
2022/04/14 05:52:02;;;;;;;6.57;2.00;;;;;;;8.00;100.00;94742.66;5031912;28;20032;-90
2022/04/14 05:54:27;;;;;;;5.78;2.30;;;;;;;8.08;100.00;94737.00;5042513;28;20099;-91
2022/04/14 05:56:53;;;;;;;7.57;2.45;;;;;;;8.19;100.00;94740.56;5026121;28;20397;-90
2022/04/14 05:59:18;;;;;;;3.80;1.85;;;;;;;8.31;100.00;94741.19;5042404;28;20025;-91
2022/04/14 06:01:44;;;;;;;4.28;2.45;;;;;;;8.46;100.00;94739.78;5026004;28;20032;-88
2022/04/14 06:04:10;;;;;;;4.30;2.10;;;;;;;8.54;100.00;94731.56;5024567;28;20074;-89
2022/04/14 06:06:35;;;;;;;2.53;1.73;;;;;;;8.66;100.00;94738.50;5006202;28;20131;-89
2022/04/14 06:09:01;;;;;;;4.47;1.75;;;;;;;8.80;100.00;94742.28;5022610;28;20029;-89
2022/04/14 06:11:28;;;;;;;7.13;2.20;;;;;;;8.95;100.00;94736.41;5022571;28;20033;-90
2022/04/14 06:13:53;;;;;;;7.50;2.78;;;;;;;8.91;100.00;94741.38;5022715;28;20037;-90
2022/04/14 06:16:19;;;;;;;3.25;2.17;;;;;;;8.93;100.00;94735.09;5021934;28;20076;-90
2022/04/14 06:18:45;;;;;;;6.60;2.28;;;;;;;8.99;100.00;94736.72;5038676;28;20033;-88
2022/04/14 06:21:10;;;;;;;5.55;2.70;;;;;;;9.13;100.00;94737.88;5006513;28;20082;-89
2022/04/14 06:23:36;;;;;;;8.63;2.67;;;;;;;9.01;100.00;94739.84;5038808;28;20077;-88
2022/04/14 06:26:02;;;;;;;5.32;2.40;;;;;;;9.04;100.00;94739.38;5040974;28;20075;-89
2022/04/14 06:28:28;;;;;;;4.97;2.45;;;;;;;9.24;100.00;94724.91;5025601;28;20338;-90
2022/04/14 06:30:54;;;;;;;4.75;2.50;;;;;;;9.36;100.00;94727.34;5041686;28;20029;-90
2022/04/14 06:33:20;;;;;;;14.73;3.20;;;;;;;9.36;100.00;94728.13;5025319;28;20029;-89
2022/04/14 06:35:46;;;;;;;4.30;2.63;;;;;;;9.59;100.00;94732.22;5041731;28;20033;-90
2022/04/14 06:38:11;;;;;;;4.97;2.47;;;;;;;9.69;100.00;94728.88;5041548;28;20116;-89
2022/04/14 06:40:37;;;;;;;8.23;2.55;;;;;;;9.88;100.00;94726.63;5025283;28;20052;-90
2022/04/14 06:43:03;;;;;;;4.15;2.47;;;;;;;10.07;100.00;94733.28;5025264;28;20040;-90
2022/04/14 06:45:29;;;;;;;7.35;3.22;;;;;;;10.07;100.00;94728.81;5025116;28;20036;-90
2022/04/14 06:47:55;;;;;;;6.53;3.38;;;;;;;10.18;100.00;94727.84;5041131;28;20032;-90
2022/04/14 06:50:20;;;;;;;8.98;3.80;;;;;;;10.15;100.00;94730.97;5025037;28;20025;-89
2022/04/14 06:52:46;;;;;;;9.45;3.80;;;;;;;10.14;100.00;94737.25;5041708;28;20043;-90
2022/04/14 06:55:11;;;;;;;8.82;3.63;;;;;;;10.32;100.00;94735.22;5024900;28;20020;-90
2022/04/14 06:57:37;;;;;;;6.75;3.40;;;;;;;9.96;100.00;94741.06;5024800;28;20020;-89
2022/04/14 07:00:04;;;;;;;5.93;3.00;;;;;;;10.12;100.00;94728.06;5041695;28;20167;-91
2022/04/14 07:02:31;;;;;;;6.65;3.40;;;;;;;9.99;100.00;94729.31;5041283;28;20025;-89
2022/04/14 07:04:58;;;;;;;6.53;2.92;;;;;;;10.20;100.00;94730.22;5041465;28;20031;-90
2022/04/14 07:07:24;;;;;;;3.60;2.42;;;;;;;10.38;100.00;94728.19;5041308;28;20150;-89
2022/04/14 07:09:49;;;;;;;4.43;2.67;;;;;;;10.42;100.00;94724.81;5057846;28;20450;-90
2022/04/14 07:12:14;;;;;;;5.47;3.05;;;;;;;10.56;100.00;94730.34;5057554;28;20036;-90
2022/04/14 07:14:40;;;;;;;5.82;2.53;;;;;;;10.81;100.00;94723.59;5041167;28;20124;-91
2022/04/14 07:17:06;;;;;;;6.07;2.55;;;;;;;10.97;100.00;94715.75;5057225;28;20029;-90
2022/04/14 07:19:31;;;;;;;5.82;2.28;;;;;;;11.22;100.00;94719.47;5057441;28;20021;-90
2022/04/14 07:21:57;;;;;;;4.85;1.92;;;;;;;11.40;100.00;94726.78;5057504;28;20024;-90
2022/04/14 07:24:22;;;;;;;4.68;2.10;;;;;;;11.44;91.38;94722.59;5040957;28;20024;-90
2022/04/14 07:26:47;;;;;;;4.25;1.73;;;;;;;11.42;84.64;94724.69;5040726;28;20135;-90
2022/04/14 07:29:13;;;;;;;5.53;2.00;;;;;;;11.39;87.56;94719.19;5058360;28;20028;-90
2022/04/14 07:31:41;;;;;;;5.45;2.17;;;;;;;11.51;79.37;94718.94;5057611;28;20442;-90
2022/04/14 07:34:08;;;;;;;3.72;1.52;;;;;;;11.45;78.87;94726.78;5057692;28;20027;-90
2022/04/14 07:36:34;;;;;;;3.15;1.42;;;;;;;11.65;71.99;94727.03;5057087;28;20072;-91
2022/04/14 07:39:00;;;;;;;5.60;1.80;;;;;;;11.70;76.97;94734.91;5057168;28;20345;-91
2022/04/14 07:41:26;;;;;;;5.35;1.25;;;;;;;11.78;76.00;94736.22;5057387;28;20033;-91
2022/04/14 07:43:53;;;;;;;4.13;1.33;;;;;;;11.67;70.18;94732.78;5057116;28;20027;-90
2022/04/14 07:46:19;;;;;;;4.50;1.40;;;;;;;11.71;68.20;94733.88;5057355;28;20020;-92
2022/04/14 07:48:44;;;;;;;5.28;1.30;;;;;;;11.74;71.51;94736.72;5056927;28;20456;-91
2022/04/14 07:51:09;;;;;;;4.47;1.80;;;;;;;11.94;76.33;94740.38;5056881;28;20024;-90
2022/04/14 07:53:37;;;;;;;6.47;2.20;;;;;;;12.11;67.07;94726.94;5039939;28;20028;-90
2022/04/14 07:56:04;;;;;;;3.03;1.70;;;;;;;12.33;64.90;94746.06;5040573;28;20036;-91
2022/04/14 07:58:30;;;;;;;7.43;2.38;;;;;;;12.46;63.86;94749.97;5056876;28;20111;-92
2022/04/14 08:00:56;;;;;;;7.07;2.90;;;;;;;12.57;62.81;94741.00;5040408;28;20068;-90
2022/04/14 08:03:21;;;;;;;9.88;3.35;;;;;;;12.63;59.69;94733.88;5040408;28;20021;-90
2022/04/14 08:05:48;;;;;;;5.50;2.47;;;;;;;12.64;59.78;94743.31;5040156;28;20021;-91
2022/04/14 08:08:18;;;;;;;8.50;2.75;;;;;;;12.57;56.89;94748.88;5056727;28;20025;-90
2022/04/14 08:10:47;;;;;;;7.53;2.20;;;;;;;12.73;55.75;94747.75;5056542;28;20082;-92
2022/04/14 08:13:13;;;;;;;5.40;2.17;;;;;;;12.91;59.74;94740.28;5056515;28;20021;-91
2022/04/14 08:15:39;;;;;;;6.03;2.03;;;;;;;12.91;56.66;94736.84;5040064;28;20024;-92
2022/04/14 08:18:06;;;;;;;6.20;2.30;;;;;;;12.97;55.49;94739.16;5039919;28;20025;-92
2022/04/14 08:20:32;;;;;;;5.68;1.88;;;;;;;13.14;53.01;94730.91;5039924;28;20031;-91
2022/04/14 08:22:59;;;;;;;6.90;2.40;;;;;;;13.43;52.50;94740.72;5039826;28;20025;-91
2022/04/14 08:25:30;;;;;;;4.30;1.85;;;;;;;13.31;53.61;94739.50;5039952;28;20024;-91
2022/04/14 08:28:00;;;;;;;4.15;1.67;;;;;;;13.51;51.54;94735.94;5039662;28;20452;-91
2022/04/14 08:30:27;;;;;;;3.95;1.95;;;;;;;13.63;51.48;94740.84;5040415;28;20021;-89
2022/04/14 08:32:54;;;;;;;5.80;1.70;;;;;;;13.76;52.30;94742.03;5039945;28;20091;-91
2022/04/14 08:35:20;;;;;;;2.83;1.65;;;;;;;13.50;50.91;94737.00;5056140;28;20028;-90
2022/04/14 08:37:46;;;;;;;3.63;1.40;;;;;;;13.61;50.98;94741.09;5039177;28;20523;-90
2022/04/14 08:40:15;;;;;;;2.97;1.55;;;;;;;13.60;51.14;94744.78;5056091;28;20029;-89
2022/04/14 08:42:43;;;;;;;8.90;1.60;;;;;;;13.97;50.23;94742.63;5055962;28;20031;-90
2022/04/14 08:45:12;;;;;;;7.72;1.60;;;;;;;14.42;47.66;94745.84;5039114;28;20065;-90
2022/04/14 08:47:39;;;;;;;3.80;1.58;;;;;;;14.62;47.08;94740.56;5056083;28;20452;-90
2022/04/14 08:50:06;;;;;;;4.40;1.80;;;;;;;14.72;45.60;94744.97;5039465;28;20058;-89
2022/04/14 08:52:34;;;;;;;7.60;1.85;;;;;;;14.31;50.92;94747.00;5056053;28;20031;-90
2022/04/14 08:55:00;;;;;;;5.60;1.38;;;;;;;14.25;50.98;94748.13;5055588;28;20388;-91
2022/04/14 08:57:26;;;;;;;5.05;1.63;;;;;;;14.30;48.74;94744.66;5055608;28;20056;-90
2022/04/14 08:59:51;;;;;;;4.15;1.50;;;;;;;14.35;47.00;94749.88;5039156;28;20056;-90
2022/04/14 09:02:18;;;;;;;3.20;1.50;;;;;;;14.39;43.91;94754.28;5055660;28;20032;-91
2022/04/14 09:04:43;;;;;;;3.28;1.60;;;;;;;14.40;43.98;94744.53;5054644;28;20029;-90
2022/04/14 09:07:10;;;;;;;5.78;1.55;;;;;;;14.56;43.08;94751.19;5039344;28;20031;-89
2022/04/14 09:09:36;;;;;;;6.93;1.80;;;;;;;14.30;44.27;94749.91;5029420;28;20392;-90
2022/04/14 09:12:02;;;;;;;4.30;1.48;;;;;;;14.23;45.99;94750.25;5022638;28;20020;-90
2022/04/14 09:14:29;;;;;;;6.82;1.55;;;;;;;14.63;49.20;94747.41;5022623;28;20119;-89
2022/04/14 09:16:55;;;;;;;4.28;1.40;;;;;;;14.66;44.64;94752.13;5022757;28;20346;-90
2022/04/14 09:19:20;;;;;;;4.90;1.40;;;;;;;14.50;46.33;94752.34;5022925;28;20025;-91
2022/04/14 09:22:09;;;;;;;5.53;1.60;;;;;;;14.59;48.73;94756.97;5022485;28;20029;-91
2022/04/14 09:24:55;;;;;;;3.20;1.25;;;;;;;14.99;45.32;94749.63;5039041;28;20082;-89
2022/04/14 09:27:33;;;;;;;4.28;1.40;;;;;;;15.08;45.79;94755.81;5022745;28;20422;-89
2022/04/14 09:30:05;;;;;;;3.53;1.40;;;;;;;15.36;43.41;94745.38;5022796;28;20029;-89
2022/04/14 09:32:34;;;;;;;2.65;1.27;;;;;;;15.67;45.26;94746.72;5039002;28;20029;-90
2022/04/14 09:35:03;;;;;;;3.10;1.38;;;;;;;16.04;44.13;94749.56;5038825;28;20033;-90
2022/04/14 09:37:29;;;;;;;2.85;1.40;;;;;;;15.56;41.91;94735.56;5037196;28;20028;-89
2022/04/14 09:39:57;;;;;;;5.68;1.50;;;;;;;15.42;43.96;94732.88;5022628;28;20037;-88
2022/04/14 09:42:30;;;;;;;4.57;1.63;;;;;;;15.52;43.48;94739.88;5038959;28;20083;-91
2022/04/14 09:44:56;;;;;;;2.25;1.33;;;;;;;15.64;44.89;94742.03;5022720;28;20028;-89
2022/04/14 09:47:25;;;;;;;4.85;1.67;;;;;;;15.54;46.70;94738.47;5022174;28;20029;-89
2022/04/14 09:49:51;;;;;;;3.67;2.00;;;;;;;15.83;47.12;94732.19;5022742;28;20025;-90
2022/04/14 09:52:16;;;;;;;2.95;1.45;;;;;;;15.73;45.56;94736.88;5018595;28;20473;-89
2022/04/14 09:54:42;;;;;;;3.28;1.75;;;;;;;15.83;47.55;94742.00;5002826;28;20064;-89
2022/04/14 09:57:11;;;;;;;9.73;1.60;;;;;;;15.98;44.55;94735.66;5019408;28;20029;-91
2022/04/14 09:59:37;;;;;;;6.50;1.58;;;;;;;15.95;44.17;94738.91;5018972;28;20036;-91
2022/04/14 10:02:13;;;;;;;4.47;1.70;;;;;;;15.94;43.31;94742.63;5002983;28;20488;-90
2022/04/14 10:04:41;;;;;;;6.85;1.85;;;;;;;15.84;46.60;94741.69;5019296;28;20026;-91
2022/04/14 10:07:08;;;;;;;4.68;2.17;;;;;;;15.95;45.74;94734.41;5018868;28;20120;-91
2022/04/14 10:09:35;;;;;;;4.18;1.60;;;;;;;16.11;45.77;94737.53;5035241;28;20446;-91
2022/04/14 10:12:02;;;;;;;5.22;1.85;;;;;;;15.93;45.58;94731.28;5018987;28;20434;-91
2022/04/14 10:14:28;;;;;;;8.02;2.55;;;;;;;15.78;47.98;94729.66;5019040;28;20033;-91
2022/04/14 10:16:53;;;;;;;3.70;1.77;;;;;;;15.89;45.74;94726.84;5020981;28;20033;-91
2022/04/14 10:19:19;;;;;;;5.30;2.42;;;;;;;15.92;50.34;94726.28;5022475;28;20411;-90
2022/04/14 10:21:45;;;;;;;3.58;1.67;;;;;;;15.65;46.00;94725.13;5006044;28;20036;-90
2022/04/14 10:24:14;;;;;;;3.75;1.70;;;;;;;15.73;45.65;94718.38;5022587;28;20036;-90
2022/04/14 10:26:40;;;;;;;4.07;1.95;;;;;;;16.45;49.36;94730.28;5022228;28;20032;-91
2022/04/14 10:29:06;;;;;;;4.05;2.10;;;;;;;16.31;45.23;94724.22;5022168;28;20033;-90
2022/04/14 10:31:38;;;;;;;3.20;1.73;;;;;;;16.17;46.33;94732.16;5022339;28;20033;-92
2022/04/14 10:34:07;;;;;;;3.50;1.95;;;;;;;16.17;45.43;94730.28;5021969;28;20447;-91
2022/04/14 10:36:38;;;;;;;4.63;1.88;;;;;;;16.33;47.05;94730.78;5006200;28;20350;-90
2022/04/14 10:39:05;;;;;;;6.13;2.72;;;;;;;16.10;46.87;94730.69;5022121;28;20346;-90
2022/04/14 10:41:33;;;;;;;5.30;2.38;;;;;;;16.21;45.63;94728.66;5021986;28;20037;-90
2022/04/14 10:44:00;;;;;;;5.45;2.30;;;;;;;16.37;47.93;94723.06;5022192;28;20037;-91
2022/04/14 10:46:38;;;;;;;7.22;2.63;;;;;;;16.46;47.30;94731.84;5021927;28;20036;-90
2022/04/14 10:49:26;;;;;;;8.50;2.70;;;;;;;16.49;46.53;94731.25;5022172;28;20033;-90
2022/04/14 10:51:57;;;;;;;5.57;2.20;;;;;;;16.02;46.04;94725.28;5022106;28;20028;-91
2022/04/14 10:54:22;;;;;;;6.50;2.53;;;;;;;15.77;46.96;94733.38;5022704;28;20343;-91
2022/04/14 10:56:50;;;;;;;4.90;2.40;;;;;;;15.76;48.13;94726.50;5021799;28;20029;-90
2022/04/14 10:59:18;;;;;;;8.70;2.63;;;;;;;16.20;48.52;94727.06;5021646;28;20025;-91
2022/04/14 11:01:52;;;;;;;9.43;3.47;;;;;;;16.50;49.17;94722.28;5021646;28;20037;-90
2022/04/14 11:04:26;;;;;;;9.68;3.58;;;;;;;16.32;48.88;94723.16;5021837;28;20026;-90
2022/04/14 11:07:15;;;;;;;6.63;2.78;;;;;;;16.60;49.46;94726.56;5021551;28;20427;-90
2022/04/14 11:09:50;;;;;;;4.53;2.90;;;;;;;16.61;49.41;94727.31;5021458;28;20052;-91
2022/04/14 11:12:18;;;;;;;6.90;2.90;;;;;;;16.58;51.80;94727.94;5038872;28;20048;-90
2022/04/14 11:14:54;;;;;;;6.15;2.90;;;;;;;16.34;49.42;94720.97;5005248;28;20031;-90
2022/04/14 11:18:16;;;;;;;5.72;2.88;;;;;;;16.60;55.13;94728.41;5038751;28;20577;-92
2022/04/14 11:20:22;;;;;;;7.57;3.03;;;;;;;16.82;51.78;94728.47;5031398;28;20025;-91
2022/04/14 11:23:13;;;;;;;11.45;3.45;;;;;;;16.99;48.52;94727.09;5021318;28;20564;-91
2022/04/14 11:25:41;;;;;;;8.30;3.67;;;;;;;16.75;49.81;94714.09;5021185;28;20032;-92
2022/04/14 11:28:22;;;;;;;7.57;2.90;;;;;;;16.71;52.27;94719.19;5020240;28;20471;-91
2022/04/14 11:31:12;;;;;;;8.05;3.42;;;;;;;16.88;50.47;94712.47;5021118;28;20021;-90
2022/04/14 11:33:37;;;;;;;4.65;2.67;;;;;;;16.75;50.42;94717.50;5010603;28;20098;-92
2022/04/14 11:36:21;;;;;;;6.22;3.08;;;;;;;16.73;49.97;94722.31;5004757;28;20442;-90
2022/04/14 11:38:57;;;;;;;12.15;3.30;;;;;;;16.76;50.14;94723.59;5020993;28;20128;-91
2022/04/14 11:41:50;;;;;;;5.82;3.38;;;;;;;16.87;50.48;94722.28;5037681;28;20470;-90
2022/04/14 11:44:22;;;;;;;6.15;3.30;;;;;;;17.00;49.39;94715.41;5021015;28;20112;-90
2022/04/14 11:46:55;;;;;;;8.77;2.83;;;;;;;16.68;49.80;94715.25;5020989;28;20399;-90
2022/04/14 11:49:30;;;;;;;5.25;2.50;;;;;;;17.03;50.67;94714.81;5004412;28;20087;-91
2022/04/14 11:52:01;;;;;;;7.30;3.30;;;;;;;16.86;49.69;94707.50;5020766;28;20025;-90
2022/04/14 11:54:26;;;;;;;6.72;2.92;;;;;;;16.99;48.88;94723.63;5020517;28;20076;-90
2022/04/14 11:56:56;;;;;;;5.95;3.17;;;;;;;16.79;50.42;94709.75;5037823;28;20065;-91
2022/04/14 11:59:42;;;;;;;6.95;3.00;;;;;;;17.31;51.52;94719.22;5020596;28;20442;-92